CZFM/ZFM METAR and TAF weather

Enter ICAO airport designator
Station Type Date Time Source
CZFM METAR 2019/10/20 18:00 UTC NOAA

CZFM 201800Z 34002KT 2SM -SN OVC010 M06/M06 A2991 RMK NS8 SLP133


Station Type Date Time Source
CZFM Decoded METAR 2019/10/20 18:00 UTC NOAA

Fort Mcpherson Airport, Canada (CZFM) 67-24N 134-51W
Oct 20, 2019 - 02:00 PM EDT / 2019.10.20 1800 UTC
Wind: from the NNW (340 degrees) at 2 MPH (2 KT):0
Visibility: 2 mile(s):0
Sky conditions: overcast
Weather: light snow
Temperature: 21 F (-6 C)
Dew Point: 21 F (-6 C)
Relative Humidity: 100%
Pressure (altimeter): 29.91 in. Hg (1012 hPa)
ob: CZFM 201800Z 34002KT 2SM -SN OVC010 M06/M06 A2991 RMK NS8 SLP133
cycle: 18

Station Type Date Time Source
CZFM TAF 2019/10/20 18:06 UTC NOAA

TAF
AMD CZFM 201802Z 2018/2019 32005KT 6SM -SN OVC012
TEMPO 2018/2019 2SM -SN OVC008
RMK NXT FCST WILL BE ISSUED AT 211445Z

Example: see airport list